sensor_id;sensor_type;location;lat;lon;timestamp;temperature;humidity
80577;DHT22;69937;52.420;10.538;2023-07-31T00:04:08;15.80;76.00
80577;DHT22;69937;52.420;10.538;2023-07-31T00:09:09;15.80;76.20
80577;DHT22;69937;52.420;10.538;2023-07-31T00:14:09;15.80;76.50
80577;DHT22;69937;52.420;10.538;2023-07-31T00:19:10;15.80;76.40
80577;DHT22;69937;52.420;10.538;2023-07-31T00:24:10;15.70;76.50
80577;DHT22;69937;52.420;10.538;2023-07-31T00:29:11;15.60;77.00
80577;DHT22;69937;52.420;10.538;2023-07-31T00:34:11;15.70;76.90
80577;DHT22;69937;52.420;10.538;2023-07-31T00:39:12;15.60;77.00
80577;DHT22;69937;52.420;10.538;2023-07-31T00:44:12;15.60;77.10
80577;DHT22;69937;52.420;10.538;2023-07-31T00:49:13;15.60;77.20
80577;DHT22;69937;52.420;10.538;2023-07-31T00:54:14;15.60;77.40
80577;DHT22;69937;52.420;10.538;2023-07-31T00:59:14;15.60;77.50
80577;DHT22;69937;52.420;10.538;2023-07-31T01:04:16;15.60;77.60
80577;DHT22;69937;52.420;10.538;2023-07-31T01:14:24;15.50;78.20
80577;DHT22;69937;52.420;10.538;2023-07-31T01:19:25;15.50;78.20
80577;DHT22;69937;52.420;10.538;2023-07-31T01:29:48;15.40;78.20
80577;DHT22;69937;52.420;10.538;2023-07-31T01:34:50;15.40;78.30
80577;DHT22;69937;52.420;10.538;2023-07-31T01:39:52;15.30;78.80
80577;DHT22;69937;52.420;10.538;2023-07-31T01:44:52;15.30;78.70
80577;DHT22;69937;52.420;10.538;2023-07-31T01:49:53;15.30;78.60
80577;DHT22;69937;52.420;10.538;2023-07-31T01:54:53;15.30;78.50
80577;DHT22;69937;52.420;10.538;2023-07-31T01:59:54;15.30;78.70
80577;DHT22;69937;52.420;10.538;2023-07-31T02:04:54;15.30;78.60
80577;DHT22;69937;52.420;10.538;2023-07-31T02:09:55;15.30;78.60
80577;DHT22;69937;52.420;10.538;2023-07-31T02:14:55;15.30;78.50
80577;DHT22;69937;52.420;10.538;2023-07-31T02:19:56;15.30;78.80
80577;DHT22;69937;52.420;10.538;2023-07-31T02:24:56;15.30;78.60
80577;DHT22;69937;52.420;10.538;2023-07-31T02:29:57;15.30;78.80
80577;DHT22;69937;52.420;10.538;2023-07-31T02:34:59;15.30;79.10
80577;DHT22;69937;52.420;10.538;2023-07-31T02:40:00;15.20;79.10
80577;DHT22;69937;52.420;10.538;2023-07-31T02:45:00;15.20;79.20
80577;DHT22;69937;52.420;10.538;2023-07-31T02:50:02;15.20;79.40
80577;DHT22;69937;52.420;10.538;2023-07-31T02:55:03;15.20;79.60
80577;DHT22;69937;52.420;10.538;2023-07-31T03:00:04;15.20;79.90
80577;DHT22;69937;52.420;10.538;2023-07-31T03:05:07;15.10;80.00
80577;DHT22;69937;52.420;10.538;2023-07-31T03:10:08;15.00;80.30
80577;DHT22;69937;52.420;10.538;2023-07-31T03:15:09;15.00;80.40
80577;DHT22;69937;52.420;10.538;2023-07-31T03:20:10;15.00;80.50
80577;DHT22;69937;52.420;10.538;2023-07-31T03:25:10;15.00;80.70
80577;DHT22;69937;52.420;10.538;2023-07-31T03:30:11;15.00;80.80
80577;DHT22;69937;52.420;10.538;2023-07-31T03:35:11;15.10;80.70
80577;DHT22;69937;52.420;10.538;2023-07-31T03:40:12;15.10;80.90
80577;DHT22;69937;52.420;10.538;2023-07-31T03:45:12;15.10;80.90
80577;DHT22;69937;52.420;10.538;2023-07-31T03:50:13;15.00;80.90
80577;DHT22;69937;52.420;10.538;2023-07-31T03:55:14;15.00;81.20
80577;DHT22;69937;52.420;10.538;2023-07-31T04:00:14;15.10;81.10
80577;DHT22;69937;52.420;10.538;2023-07-31T04:05:15;15.10;81.20
80577;DHT22;69937;52.420;10.538;2023-07-31T04:10:16;15.10;81.10
80577;DHT22;69937;52.420;10.538;2023-07-31T04:15:16;15.20;81.10
80577;DHT22;69937;52.420;10.538;2023-07-31T04:20:17;15.20;81.10
80577;DHT22;69937;52.420;10.538;2023-07-31T04:25:17;15.20;81.20
80577;DHT22;69937;52.420;10.538;2023-07-31T04:30:18;15.20;81.30
80577;DHT22;69937;52.420;10.538;2023-07-31T04:35:18;15.20;81.30
80577;DHT22;69937;52.420;10.538;2023-07-31T04:40:19;15.20;81.30
80577;DHT22;69937;52.420;10.538;2023-07-31T04:45:19;15.20;81.50
80577;DHT22;69937;52.420;10.538;2023-07-31T04:50:20;15.20;81.40
80577;DHT22;69937;52.420;10.538;2023-07-31T04:55:21;15.20;81.60
80577;DHT22;69937;52.420;10.538;2023-07-31T05:00:21;15.20;81.60
80577;DHT22;69937;52.420;10.538;2023-07-31T05:05:22;15.10;81.80
80577;DHT22;69937;52.420;10.538;2023-07-31T05:10:22;15.20;82.00
80577;DHT22;69937;52.420;10.538;2023-07-31T05:15:23;15.20;82.00
80577;DHT22;69937;52.420;10.538;2023-07-31T05:20:23;15.10;81.10
80577;DHT22;69937;52.420;10.538;2023-07-31T05:25:24;15.00;81.20
80577;DHT22;69937;52.420;10.538;2023-07-31T05:30:24;14.90;81.00
80577;DHT22;69937;52.420;10.538;2023-07-31T05:35:25;14.90;81.70
80577;DHT22;69937;52.420;10.538;2023-07-31T05:40:25;14.90;81.70
80577;DHT22;69937;52.420;10.538;2023-07-31T05:45:26;14.90;81.70
80577;DHT22;69937;52.420;10.538;2023-07-31T05:50:27;14.80;81.40
80577;DHT22;69937;52.420;10.538;2023-07-31T05:55:27;14.80;81.90
80577;DHT22;69937;52.420;10.538;2023-07-31T06:00:28;14.70;82.00
80577;DHT22;69937;52.420;10.538;2023-07-31T06:05:28;14.70;82.00
80577;DHT22;69937;52.420;10.538;2023-07-31T06:10:30;14.60;82.20
80577;DHT22;69937;52.420;10.538;2023-07-31T06:15:30;14.60;82.00
80577;DHT22;69937;52.420;10.538;2023-07-31T06:20:31;14.70;82.50
80577;DHT22;69937;52.420;10.538;2023-07-31T06:25:32;14.70;82.50
80577;DHT22;69937;52.420;10.538;2023-07-31T06:30:32;14.90;82.90
80577;DHT22;69937;52.420;10.538;2023-07-31T06:35:33;15.00;82.60
80577;DHT22;69937;52.420;10.538;2023-07-31T06:40:33;15.00;83.00
80577;DHT22;69937;52.420;10.538;2023-07-31T06:45:35;15.20;82.60
80577;DHT22;69937;52.420;10.538;2023-07-31T06:50:35;15.20;82.90
80577;DHT22;69937;52.420;10.538;2023-07-31T06:55:37;15.40;83.30
80577;DHT22;69937;52.420;10.538;2023-07-31T07:00:37;15.50;83.10
80577;DHT22;69937;52.420;10.538;2023-07-31T07:05:38;15.60;82.70
80577;DHT22;69937;52.420;10.538;2023-07-31T07:10:38;15.70;82.60
80577;DHT22;69937;52.420;10.538;2023-07-31T07:15:39;15.80;82.50
80577;DHT22;69937;52.420;10.538;2023-07-31T07:20:41;15.80;82.20
80577;DHT22;69937;52.420;10.538;2023-07-31T07:25:47;15.80;82.40
80577;DHT22;69937;52.420;10.538;2023-07-31T07:30:52;15.80;82.00
80577;DHT22;69937;52.420;10.538;2023-07-31T07:35:53;15.80;81.80
80577;DHT22;69937;52.420;10.538;2023-07-31T07:40:54;15.70;81.60
80577;DHT22;69937;52.420;10.538;2023-07-31T07:45:54;15.70;81.40
80577;DHT22;69937;52.420;10.538;2023-07-31T07:50:55;15.60;81.50
80577;DHT22;69937;52.420;10.538;2023-07-31T07:55:55;15.60;81.60
80577;DHT22;69937;52.420;10.538;2023-07-31T08:00:56;15.70;81.60
80577;DHT22;69937;52.420;10.538;2023-07-31T08:06:00;15.70;81.40
80577;DHT22;69937;52.420;10.538;2023-07-31T08:11:01;15.80;81.60
80577;DHT22;69937;52.420;10.538;2023-07-31T08:16:02;16.00;81.80
80577;DHT22;69937;52.420;10.538;2023-07-31T08:21:03;16.20;81.10
80577;DHT22;69937;52.420;10.538;2023-07-31T08:26:03;16.40;80.10
80577;DHT22;69937;52.420;10.538;2023-07-31T08:31:04;16.50;80.40
80577;DHT22;69937;52.420;10.538;2023-07-31T08:36:04;16.60;79.30
80577;DHT22;69937;52.420;10.538;2023-07-31T08:41:05;16.70;78.10
80577;DHT22;69937;52.420;10.538;2023-07-31T08:46:06;16.80;78.50
80577;DHT22;69937;52.420;10.538;2023-07-31T08:51:06;17.00;77.50
80577;DHT22;69937;52.420;10.538;2023-07-31T08:56:07;17.00;76.90
80577;DHT22;69937;52.420;10.538;2023-07-31T09:01:08;17.00;76.70
80577;DHT22;69937;52.420;10.538;2023-07-31T09:06:10;17.00;75.80
80577;DHT22;69937;52.420;10.538;2023-07-31T09:11:11;17.00;75.50
80577;DHT22;69937;52.420;10.538;2023-07-31T09:16:12;17.00;74.80
80577;DHT22;69937;52.420;10.538;2023-07-31T09:21:13;17.00;74.80
80577;DHT22;69937;52.420;10.538;2023-07-31T09:26:33;17.00;75.00
80577;DHT22;69937;52.420;10.538;2023-07-31T09:31:43;17.00;75.10
80577;DHT22;69937;52.420;10.538;2023-07-31T09:41:53;17.10;75.20
80577;DHT22;69937;52.420;10.538;2023-07-31T09:46:53;17.20;74.70
80577;DHT22;69937;52.420;10.538;2023-07-31T09:51:54;17.20;75.00
80577;DHT22;69937;52.420;10.538;2023-07-31T09:56:54;17.20;75.80
80577;DHT22;69937;52.420;10.538;2023-07-31T10:01:57;17.20;75.50
80577;DHT22;69937;52.420;10.538;2023-07-31T10:06:59;17.20;76.50
80577;DHT22;69937;52.420;10.538;2023-07-31T10:12:05;17.20;76.50
80577;DHT22;69937;52.420;10.538;2023-07-31T10:17:09;17.20;76.20
80577;DHT22;69937;52.420;10.538;2023-07-31T10:22:11;17.20;76.60
80577;DHT22;69937;52.420;10.538;2023-07-31T10:27:12;17.20;76.40
80577;DHT22;69937;52.420;10.538;2023-07-31T10:32:14;17.00;78.00
80577;DHT22;69937;52.420;10.538;2023-07-31T10:37:38;16.90;78.20
80577;DHT22;69937;52.420;10.538;2023-07-31T10:47:49;17.00;78.30
80577;DHT22;69937;52.420;10.538;2023-07-31T10:52:54;17.20;77.90
80577;DHT22;69937;52.420;10.538;2023-07-31T10:57:56;17.20;77.50
80577;DHT22;69937;52.420;10.538;2023-07-31T11:03:08;17.40;77.30
80577;DHT22;69937;52.420;10.538;2023-07-31T11:13:12;17.70;76.30
80577;DHT22;69937;52.420;10.538;2023-07-31T11:18:13;18.10;75.10
80577;DHT22;69937;52.420;10.538;2023-07-31T11:23:16;18.30;73.40
80577;DHT22;69937;52.420;10.538;2023-07-31T11:28:18;18.40;73.00
80577;DHT22;69937;52.420;10.538;2023-07-31T11:33:19;18.50;72.70
80577;DHT22;69937;52.420;10.538;2023-07-31T11:38:33;18.90;72.20
80577;DHT22;69937;52.420;10.538;2023-07-31T11:43:34;19.20;70.80
80577;DHT22;69937;52.420;10.538;2023-07-31T11:48:37;19.20;70.00
80577;DHT22;69937;52.420;10.538;2023-07-31T11:53:43;19.30;70.40
80577;DHT22;69937;52.420;10.538;2023-07-31T11:58:52;19.30;70.00
80577;DHT22;69937;52.420;10.538;2023-07-31T12:03:53;19.20;70.00
80577;DHT22;69937;52.420;10.538;2023-07-31T12:09:03;19.20;69.80
80577;DHT22;69937;52.420;10.538;2023-07-31T12:14:04;19.10;69.90
80577;DHT22;69937;52.420;10.538;2023-07-31T12:19:05;19.10;70.20
80577;DHT22;69937;52.420;10.538;2023-07-31T12:24:07;19.10;70.20
80577;DHT22;69937;52.420;10.538;2023-07-31T12:29:07;19.10;70.80
80577;DHT22;69937;52.420;10.538;2023-07-31T12:34:19;19.10;70.20
80577;DHT22;69937;52.420;10.538;2023-07-31T12:39:21;19.10;70.80
80577;DHT22;69937;52.420;10.538;2023-07-31T12:44:21;19.10;70.70
80577;DHT22;69937;52.420;10.538;2023-07-31T12:49:22;19.10;71.10
80577;DHT22;69937;52.420;10.538;2023-07-31T12:54:22;19.20;70.90
80577;DHT22;69937;52.420;10.538;2023-07-31T12:59:23;19.30;69.50
80577;DHT22;69937;52.420;10.538;2023-07-31T13:04:23;19.40;69.50
80577;DHT22;69937;52.420;10.538;2023-07-31T13:09:24;19.40;69.90
80577;DHT22;69937;52.420;10.538;2023-07-31T13:14:25;19.30;69.30
80577;DHT22;69937;52.420;10.538;2023-07-31T13:19:25;19.30;70.00
80577;DHT22;69937;52.420;10.538;2023-07-31T13:24:26;19.40;69.50
80577;DHT22;69937;52.420;10.538;2023-07-31T13:29:26;19.30;70.40
80577;DHT22;69937;52.420;10.538;2023-07-31T13:34:27;19.00;72.50
80577;DHT22;69937;52.420;10.538;2023-07-31T13:39:27;18.70;73.40
80577;DHT22;69937;52.420;10.538;2023-07-31T13:44:28;18.70;73.40
80577;DHT22;69937;52.420;10.538;2023-07-31T13:49:29;18.70;73.20
80577;DHT22;69937;52.420;10.538;2023-07-31T13:54:30;18.80;72.50
80577;DHT22;69937;52.420;10.538;2023-07-31T13:59:30;18.80;72.00
80577;DHT22;69937;52.420;10.538;2023-07-31T14:04:31;18.80;72.00
80577;DHT22;69937;52.420;10.538;2023-07-31T14:09:32;18.80;71.90
80577;DHT22;69937;52.420;10.538;2023-07-31T14:14:32;18.90;71.30
80577;DHT22;69937;52.420;10.538;2023-07-31T14:19:34;18.90;70.60
80577;DHT22;69937;52.420;10.538;2023-07-31T14:24:34;19.00;70.80
80577;DHT22;69937;52.420;10.538;2023-07-31T14:29:35;19.10;70.60
80577;DHT22;69937;52.420;10.538;2023-07-31T14:34:35;19.10;70.30
80577;DHT22;69937;52.420;10.538;2023-07-31T14:39:36;19.10;69.70
80577;DHT22;69937;52.420;10.538;2023-07-31T14:44:36;19.00;70.30
80577;DHT22;69937;52.420;10.538;2023-07-31T14:49:37;19.00;70.50
80577;DHT22;69937;52.420;10.538;2023-07-31T14:54:37;19.10;70.70
80577;DHT22;69937;52.420;10.538;2023-07-31T14:59:38;19.10;70.30
80577;DHT22;69937;52.420;10.538;2023-07-31T15:04:39;19.20;70.20
80577;DHT22;69937;52.420;10.538;2023-07-31T15:09:39;19.40;69.10
80577;DHT22;69937;52.420;10.538;2023-07-31T15:14:40;19.50;69.10
80577;DHT22;69937;52.420;10.538;2023-07-31T15:19:40;19.50;68.90
80577;DHT22;69937;52.420;10.538;2023-07-31T15:24:41;19.50;69.10
80577;DHT22;69937;52.420;10.538;2023-07-31T15:29:41;19.40;69.30
80577;DHT22;69937;52.420;10.538;2023-07-31T15:34:42;19.40;69.10
80577;DHT22;69937;52.420;10.538;2023-07-31T15:39:43;19.30;69.10
80577;DHT22;69937;52.420;10.538;2023-07-31T15:44:43;19.30;69.20
80577;DHT22;69937;52.420;10.538;2023-07-31T15:49:44;19.30;69.10
80577;DHT22;69937;52.420;10.538;2023-07-31T15:54:44;19.40;69.00
80577;DHT22;69937;52.420;10.538;2023-07-31T15:59:45;19.50;68.70
80577;DHT22;69937;52.420;10.538;2023-07-31T16:04:45;19.60;68.20
80577;DHT22;69937;52.420;10.538;2023-07-31T16:09:46;19.70;67.90
80577;DHT22;69937;52.420;10.538;2023-07-31T16:14:46;19.90;67.70
80577;DHT22;69937;52.420;10.538;2023-07-31T16:19:47;20.00;66.70
80577;DHT22;69937;52.420;10.538;2023-07-31T16:24:47;20.00;67.20
80577;DHT22;69937;52.420;10.538;2023-07-31T16:29:48;20.00;66.90
80577;DHT22;69937;52.420;10.538;2023-07-31T16:34:48;20.00;66.90
80577;DHT22;69937;52.420;10.538;2023-07-31T16:39:49;19.90;67.50
80577;DHT22;69937;52.420;10.538;2023-07-31T16:44:51;19.70;67.60
80577;DHT22;69937;52.420;10.538;2023-07-31T16:49:52;19.70;67.50
80577;DHT22;69937;52.420;10.538;2023-07-31T16:54:52;19.60;67.60
80577;DHT22;69937;52.420;10.538;2023-07-31T16:59:53;19.60;67.90
80577;DHT22;69937;52.420;10.538;2023-07-31T17:04:54;19.70;67.90
80577;DHT22;69937;52.420;10.538;2023-07-31T17:09:55;19.70;68.00
80577;DHT22;69937;52.420;10.538;2023-07-31T17:14:56;19.70;68.10
80577;DHT22;69937;52.420;10.538;2023-07-31T17:19:57;19.60;68.30
80577;DHT22;69937;52.420;10.538;2023-07-31T17:24:57;19.50;68.50
80577;DHT22;69937;52.420;10.538;2023-07-31T17:29:58;19.50;68.50
80577;DHT22;69937;52.420;10.538;2023-07-31T17:34:58;19.40;68.60
80577;DHT22;69937;52.420;10.538;2023-07-31T17:40:00;19.40;68.60
80577;DHT22;69937;52.420;10.538;2023-07-31T17:45:00;19.30;68.90
80577;DHT22;69937;52.420;10.538;2023-07-31T17:50:01;19.30;69.10
80577;DHT22;69937;52.420;10.538;2023-07-31T17:55:02;19.20;69.70
80577;DHT22;69937;52.420;10.538;2023-07-31T18:00:03;19.20;69.50
80577;DHT22;69937;52.420;10.538;2023-07-31T18:05:05;19.10;69.70
80577;DHT22;69937;52.420;10.538;2023-07-31T18:10:06;19.10;69.70
80577;DHT22;69937;52.420;10.538;2023-07-31T18:15:08;19.10;70.00
80577;DHT22;69937;52.420;10.538;2023-07-31T18:20:09;19.00;70.10
80577;DHT22;69937;52.420;10.538;2023-07-31T18:25:11;19.00;70.30
80577;DHT22;69937;52.420;10.538;2023-07-31T18:30:14;18.90;70.30
80577;DHT22;69937;52.420;10.538;2023-07-31T18:35:14;18.90;70.50
80577;DHT22;69937;52.420;10.538;2023-07-31T18:40:17;18.90;70.60
80577;DHT22;69937;52.420;10.538;2023-07-31T18:45:17;18.90;70.70
80577;DHT22;69937;52.420;10.538;2023-07-31T18:50:18;18.90;71.50
80577;DHT22;69937;52.420;10.538;2023-07-31T18:55:18;18.80;71.70
80577;DHT22;69937;52.420;10.538;2023-07-31T19:00:19;18.60;72.30
80577;DHT22;69937;52.420;10.538;2023-07-31T19:05:20;18.60;72.60
80577;DHT22;69937;52.420;10.538;2023-07-31T19:10:21;18.50;72.70
80577;DHT22;69937;52.420;10.538;2023-07-31T19:15:22;18.50;73.00
80577;DHT22;69937;52.420;10.538;2023-07-31T19:20:22;18.40;73.40
80577;DHT22;69937;52.420;10.538;2023-07-31T19:25:23;18.40;73.40
80577;DHT22;69937;52.420;10.538;2023-07-31T19:30:23;18.40;73.50
80577;DHT22;69937;52.420;10.538;2023-07-31T19:35:24;18.30;73.60
80577;DHT22;69937;52.420;10.538;2023-07-31T19:40:27;18.30;73.60
80577;DHT22;69937;52.420;10.538;2023-07-31T19:45:28;18.40;74.10
80577;DHT22;69937;52.420;10.538;2023-07-31T19:50:30;18.30;74.60
80577;DHT22;69937;52.420;10.538;2023-07-31T19:55:30;18.20;75.50
80577;DHT22;69937;52.420;10.538;2023-07-31T20:00:31;18.00;77.00
80577;DHT22;69937;52.420;10.538;2023-07-31T20:05:31;17.80;78.30
80577;DHT22;69937;52.420;10.538;2023-07-31T20:10:33;17.60;78.60
80577;DHT22;69937;52.420;10.538;2023-07-31T20:15:34;17.50;79.50
80577;DHT22;69937;52.420;10.538;2023-07-31T20:20:35;17.30;80.10
80577;DHT22;69937;52.420;10.538;2023-07-31T20:25:36;17.20;80.70
80577;DHT22;69937;52.420;10.538;2023-07-31T20:30:36;17.20;80.80
80577;DHT22;69937;52.420;10.538;2023-07-31T20:35:37;17.20;80.80
80577;DHT22;69937;52.420;10.538;2023-07-31T20:40:37;17.10;81.00
80577;DHT22;69937;52.420;10.538;2023-07-31T20:45:38;17.00;81.00
80577;DHT22;69937;52.420;10.538;2023-07-31T20:50:40;17.10;80.80
80577;DHT22;69937;52.420;10.538;2023-07-31T20:55:41;17.00;80.50
80577;DHT22;69937;52.420;10.538;2023-07-31T21:00:41;17.10;80.50
80577;DHT22;69937;52.420;10.538;2023-07-31T21:05:51;17.00;80.50
80577;DHT22;69937;52.420;10.538;2023-07-31T21:10:52;17.00;80.80
80577;DHT22;69937;52.420;10.538;2023-07-31T21:15:57;17.00;80.60
80577;DHT22;69937;52.420;10.538;2023-07-31T21:20:58;16.90;81.00
80577;DHT22;69937;52.420;10.538;2023-07-31T21:25:59;16.90;81.20
80577;DHT22;69937;52.420;10.538;2023-07-31T21:31:14;16.90;81.50
80577;DHT22;69937;52.420;10.538;2023-07-31T21:36:15;16.80;81.60
80577;DHT22;69937;52.420;10.538;2023-07-31T21:41:15;16.80;81.40
80577;DHT22;69937;52.420;10.538;2023-07-31T21:46:16;16.80;81.20
80577;DHT22;69937;52.420;10.538;2023-07-31T21:51:18;16.80;80.90
80577;DHT22;69937;52.420;10.538;2023-07-31T21:56:19;16.80;81.00
80577;DHT22;69937;52.420;10.538;2023-07-31T22:01:19;16.70;80.90
80577;DHT22;69937;52.420;10.538;2023-07-31T22:06:20;16.70;81.20
80577;DHT22;69937;52.420;10.538;2023-07-31T22:11:20;16.60;81.30
80577;DHT22;69937;52.420;10.538;2023-07-31T22:16:22;16.60;81.10
80577;DHT22;69937;52.420;10.538;2023-07-31T22:21:22;16.60;81.20
80577;DHT22;69937;52.420;10.538;2023-07-31T22:26:23;16.60;80.80
80577;DHT22;69937;52.420;10.538;2023-07-31T22:31:23;16.60;80.80
80577;DHT22;69937;52.420;10.538;2023-07-31T22:36:24;16.50;80.90
80577;DHT22;69937;52.420;10.538;2023-07-31T22:41:24;16.50;81.00
80577;DHT22;69937;52.420;10.538;2023-07-31T22:46:25;16.40;80.80
80577;DHT22;69937;52.420;10.538;2023-07-31T22:51:26;16.40;80.80
80577;DHT22;69937;52.420;10.538;2023-07-31T22:56:26;16.40;80.70
80577;DHT22;69937;52.420;10.538;2023-07-31T23:01:27;16.40;80.90
80577;DHT22;69937;52.420;10.538;2023-07-31T23:06:27;16.30;81.40
80577;DHT22;69937;52.420;10.538;2023-07-31T23:11:28;16.20;81.90
80577;DHT22;69937;52.420;10.538;2023-07-31T23:16:28;16.20;82.30
80577;DHT22;69937;52.420;10.538;2023-07-31T23:21:29;16.10;82.20
80577;DHT22;69937;52.420;10.538;2023-07-31T23:26:29;16.10;82.50
80577;DHT22;69937;52.420;10.538;2023-07-31T23:31:30;16.10;82.30
80577;DHT22;69937;52.420;10.538;2023-07-31T23:36:31;16.10;82.50
80577;DHT22;69937;52.420;10.538;2023-07-31T23:41:31;16.00;82.60
80577;DHT22;69937;52.420;10.538;2023-07-31T23:46:32;16.00;83.30
80577;DHT22;69937;52.420;10.538;2023-07-31T23:51:32;16.00;83.30
80577;DHT22;69937;52.420;10.538;2023-07-31T23:56:33;16.00;83.20
